Terminal Aerodrome Forecast
Issued by NWS

Home | Current Version | Previous Version | Text Only | Print | Product List | Glossary On
Versions: 1 2 3 4 5 6 7 8 9 10 11 12 13 14 15 16 17 18 19 20 21 22 23
000
FTUS41 KALY 020500
TAFPSF
TAF
KPSF 020540Z 0206/0306 VRB03KT P6SM VCSH FEW007 SCT015 OVC035
      TEMPO 0207/0211 3SM -RA BR SCT007 OVC015
     FM021500 02005KT P6SM OVC025
     FM022000 VRB03KT P6SM SCT025 OVC050=

USA.gov is the U.S. government's official web portal to all federal, state and local government web resources and services.